Time;durP1;ratioP1;P1;durP2;ratioP2;P2;SDS_P1;SDS_P2;PMS_P1;PMS_P2;Temp;Humidity;BMP_temperature;BMP_pressure;BME280_temperature;BME280_humidity;BME280_pressure;Samples;Min_cycle;Max_cycle;Signal;HPM_P1;HPM_P2
2021/07/10 00:02:21;;;;;;;;;;;;;;;17.88;63.64;99823.22;5074836;28;1881;-65
2021/07/10 00:04:49;;;;;;;;;;;;;;;17.90;63.40;99819.97;5074760;28;854;-66
2021/07/10 00:07:15;;;;;;;;;;;;;;;17.87;63.63;99826.47;5074752;28;806;-66
2021/07/10 00:09:42;;;;;;;;;;;;;;;17.74;63.94;99824.47;5074738;28;866;-66
2021/07/10 00:12:08;;;;;;;;;;;;;;;17.60;64.59;99824.16;5074550;28;1113;-66
2021/07/10 00:14:34;;;;;;;;;;;;;;;17.50;64.77;99831.69;5074560;28;1392;-66
2021/07/10 00:17:01;;;;;;;;;;;;;;;17.48;64.80;99820.16;5074541;28;872;-66
2021/07/10 00:19:27;;;;;;;;;;;;;;;17.54;64.62;99813.56;5074496;28;905;-65
2021/07/10 00:21:54;;;;;;;;;;;;;;;17.60;64.42;99824.16;5074678;28;1906;-66
2021/07/10 00:24:21;;;;;;;;;;;;;;;17.63;64.13;99817.69;5074570;28;901;-66
2021/07/10 00:26:47;;;;;;;;;;;;;;;17.65;64.00;99818.78;5074365;28;1214;-66
2021/07/10 00:29:16;;;;;;;;;;;;;;;17.75;63.63;99819.66;5074314;28;862;-66
2021/07/10 00:31:43;;;;;;;;;;;;;;;17.78;63.72;99817.97;5074520;28;858;-66
2021/07/10 00:34:09;;;;;;;;;;;;;;;17.74;63.58;99815.31;5074179;28;882;-66
2021/07/10 00:36:35;;;;;;;;;;;;;;;17.75;63.29;99823.25;5074259;28;869;-65
2021/07/10 00:39:02;;;;;;;;;;;;;;;17.80;62.98;99807.91;5074077;28;886;-66
2021/07/10 00:41:29;;;;;;;;;;;;;;;17.83;62.74;99804.22;5074185;28;819;-64
2021/07/10 00:43:56;;;;;;;;;;;;;;;17.85;62.62;99801.75;5074180;28;1910;-64
2021/07/10 00:46:23;;;;;;;;;;;;;;;17.89;61.87;99804.44;5074300;28;866;-64
2021/07/10 00:48:50;;;;;;;;;;;;;;;17.96;61.88;99804.19;5073316;28;901;-66
2021/07/10 00:51:17;;;;;;;;;;;;;;;17.91;61.74;99807.56;5073919;28;857;-66
2021/07/10 00:53:44;;;;;;;;;;;;;;;17.90;61.69;99804.00;5073848;28;917;-65
2021/07/10 00:56:09;;;;;;;;;;;;;;;17.91;61.56;99804.75;5073807;28;897;-65
2021/07/10 00:58:36;;;;;;;;;;;;;;;17.94;61.76;99806.66;5072453;28;1432;-63
2021/07/10 01:01:03;;;;;;;;;;;;;;;17.91;61.90;99804.75;5073762;28;841;-65
2021/07/10 01:03:34;;;;;;;;;;;;;;;17.89;62.02;99801.66;5055676;28;1890;-66
2021/07/10 01:06:01;;;;;;;;;;;;;;;17.88;62.03;99789.69;5073667;28;795;-65
2021/07/10 01:08:28;;;;;;;;;;;;;;;17.84;62.05;99788.25;5073577;28;803;-65
2021/07/10 01:10:55;;;;;;;;;;;;;;;17.81;62.57;99791.91;5073579;28;807;-64
2021/07/10 01:13:21;;;;;;;;;;;;;;;17.78;62.40;99790.81;5073648;28;1201;-65
2021/07/10 01:15:48;;;;;;;;;;;;;;;17.80;62.36;99793.16;5073746;28;881;-66
2021/07/10 01:18:15;;;;;;;;;;;;;;;17.73;62.89;99797.75;5073406;28;775;-64
2021/07/10 01:20:43;;;;;;;;;;;;;;;17.63;63.13;99781.34;5073432;28;889;-67
2021/07/10 01:23:10;;;;;;;;;;;;;;;17.61;63.38;99784.59;5073079;28;1910;-64
2021/07/10 01:25:36;;;;;;;;;;;;;;;17.61;63.29;99781.78;5073259;28;854;-64
2021/07/10 01:28:04;;;;;;;;;;;;;;;17.66;62.96;99783.22;5073213;28;834;-66
2021/07/10 01:30:30;;;;;;;;;;;;;;;17.61;63.08;99781.78;5073200;28;854;-64
2021/07/10 01:32:58;;;;;;;;;;;;;;;17.59;62.89;99775.88;5073129;28;909;-64
2021/07/10 01:35:24;;;;;;;;;;;;;;;17.59;62.58;99777.91;5073109;28;834;-66
2021/07/10 01:37:49;;;;;;;;;;;;;;;17.62;62.03;99763.78;5072969;28;902;-66
2021/07/10 01:40:18;;;;;;;;;;;;;;;17.62;62.23;99761.00;5073070;28;919;-64
2021/07/10 01:42:45;;;;;;;;;;;;;;;17.57;62.29;99772.75;5073171;28;1894;-66
2021/07/10 01:45:12;;;;;;;;;;;;;;;17.57;61.82;99760.81;5072881;28;904;-64
2021/07/10 01:47:39;;;;;;;;;;;;;;;17.63;61.58;99762.56;5072877;28;853;-64
2021/07/10 01:50:06;;;;;;;;;;;;;;;17.67;61.35;99760.44;5072773;28;849;-64
2021/07/10 01:52:34;;;;;;;;;;;;;;;17.70;61.18;99751.13;5072695;28;833;-65
2021/07/10 01:55:01;;;;;;;;;;;;;;;17.81;60.63;99749.97;5072679;28;844;-64
2021/07/10 01:57:28;;;;;;;;;;;;;;;17.96;60.23;99751.06;5072697;28;822;-66
2021/07/10 01:59:54;;;;;;;;;;;;;;;18.03;60.23;99745.22;5072644;28;885;-64
2021/07/10 02:02:21;;;;;;;;;;;;;;;18.03;60.69;99745.22;5071496;28;1952;-65
2021/07/10 02:04:49;;;;;;;;;;;;;;;18.01;60.55;99735.69;5072504;28;826;-67
2021/07/10 02:07:16;;;;;;;;;;;;;;;17.97;61.24;99730.25;5072479;28;845;-64
2021/07/10 02:09:42;;;;;;;;;;;;;;;17.94;60.56;99731.94;5072479;28;850;-66
2021/07/10 02:12:10;;;;;;;;;;;;;;;18.02;60.72;99724.06;5072316;28;905;-65
2021/07/10 02:14:37;;;;;;;;;;;;;;;18.04;60.57;99729.22;5072180;28;1210;-64
2021/07/10 02:17:04;;;;;;;;;;;;;;;18.01;60.38;99732.91;5072283;28;822;-64
2021/07/10 02:19:31;;;;;;;;;;;;;;;17.93;60.50;99733.19;5072173;28;884;-64
2021/07/10 02:21:57;;;;;;;;;;;;;;;17.87;60.80;99742.59;5072308;28;1922;-65
2021/07/10 02:24:24;;;;;;;;;;;;;;;17.74;60.73;99737.03;5072182;28;873;-66
2021/07/10 02:26:50;;;;;;;;;;;;;;;17.69;61.06;99735.59;5072009;28;1042;-64
2021/07/10 02:29:17;;;;;;;;;;;;;;;17.68;60.91;99730.47;5072030;28;858;-64
2021/07/10 02:31:43;;;;;;;;;;;;;;;17.67;60.81;99732.47;5072139;28;897;-65
2021/07/10 02:34:10;;;;;;;;;;;;;;;17.67;60.76;99732.47;5072017;28;857;-64
2021/07/10 02:36:37;;;;;;;;;;;;;;;17.68;60.51;99727.66;5071854;28;822;-66
2021/07/10 02:39:04;;;;;;;;;;;;;;;17.69;60.64;99732.03;5071968;28;999;-63
2021/07/10 02:41:30;;;;;;;;;;;;;;;17.68;60.63;99722.06;5072041;28;838;-64
2021/07/10 02:43:56;;;;;;;;;;;;;;;17.65;60.67;99720.19;5071836;28;1886;-64
2021/07/10 02:46:23;;;;;;;;;;;;;;;17.63;60.70;99717.06;5071854;28;879;-65
2021/07/10 02:48:49;;;;;;;;;;;;;;;17.65;60.65;99717.41;5071846;28;830;-65
2021/07/10 02:51:16;;;;;;;;;;;;;;;17.67;60.34;99724.09;5071651;28;814;-66
2021/07/10 02:53:42;;;;;;;;;;;;;;;17.75;60.08;99713.44;5071817;28;889;-64
2021/07/10 02:56:09;;;;;;;;;;;;;;;17.80;60.04;99715.66;5071850;28;838;-65
2021/07/10 02:58:36;;;;;;;;;;;;;;;17.81;59.84;99713.63;5071638;28;870;-65
2021/07/10 03:01:02;;;;;;;;;;;;;;;17.79;59.90;99719.66;5071930;28;874;-65
2021/07/10 03:03:29;;;;;;;;;;;;;;;17.76;60.70;99706.63;5071596;28;1947;-63
2021/07/10 03:05:56;;;;;;;;;;;;;;;17.75;60.55;99708.63;5071783;28;866;-63
2021/07/10 03:08:22;;;;;;;;;;;;;;;17.73;60.94;99702.72;5071873;28;850;-63
2021/07/10 03:10:49;;;;;;;;;;;;;;;17.70;61.07;99700.81;5071824;28;893;-65
2021/07/10 03:13:15;;;;;;;;;;;;;;;17.74;60.91;99692.31;5071763;28;1062;-63
2021/07/10 03:15:43;;;;;;;;;;;;;;;17.81;60.79;99708.03;5071458;28;1443;-64
2021/07/10 03:18:09;;;;;;;;;;;;;;;17.82;60.57;99709.63;5072241;28;756;-64
2021/07/10 03:20:35;;;;;;;;;;;;;;;17.81;60.28;99706.03;5071383;28;827;-64
2021/07/10 03:23:02;;;;;;;;;;;;;;;17.83;60.12;99708.41;5071893;28;1906;-66
2021/07/10 03:25:29;;;;;;;;;;;;;;;17.86;60.25;99710.28;5071393;28;846;-64
2021/07/10 03:27:57;;;;;;;;;;;;;;;17.91;60.42;99715.31;5071400;28;819;-66
2021/07/10 03:30:25;;;;;;;;;;;;;;;17.97;60.26;99704.31;5071815;28;803;-63
2021/07/10 03:32:52;;;;;;;;;;;;;;;18.09;60.15;99709.84;5071608;28;838;-66
2021/07/10 03:35:19;;;;;;;;;;;;;;;18.17;60.07;99715.94;5071777;28;908;-66
2021/07/10 03:37:48;;;;;;;;;;;;;;;18.27;59.88;99722.38;5071472;28;889;-64
2021/07/10 03:40:15;;;;;;;;;;;;;;;18.64;58.49;99723.31;5071323;28;1006;-66
2021/07/10 03:42:42;;;;;;;;;;;;;;;19.21;57.42;99717.47;5071232;28;1886;-65
2021/07/10 03:45:09;;;;;;;;;;;;;;;19.62;56.31;99718.13;5071167;28;885;-66
2021/07/10 03:47:36;;;;;;;;;;;;;;;19.91;55.53;99720.50;5071200;28;897;-67
2021/07/10 03:50:03;;;;;;;;;;;;;;;19.84;56.11;99731.22;5071102;28;806;-66
2021/07/10 03:52:30;;;;;;;;;;;;;;;19.47;57.23;99729.16;5071152;28;846;-66
2021/07/10 03:54:57;;;;;;;;;;;;;;;19.11;57.70;99727.84;5071184;28;802;-66
2021/07/10 03:57:24;;;;;;;;;;;;;;;18.84;58.78;99724.97;5071108;28;873;-66
2021/07/10 03:59:50;;;;;;;;;;;;;;;18.55;59.56;99724.06;5071017;28;827;-64
2021/07/10 04:02:17;;;;;;;;;;;;;;;18.42;60.18;99725.41;5071167;28;1966;-66
2021/07/10 04:04:44;;;;;;;;;;;;;;;18.33;60.43;99724.13;5071159;28;929;-66
2021/07/10 04:07:10;;;;;;;;;;;;;;;18.43;60.41;99727.72;5071314;28;853;-66
2021/07/10 04:09:37;;;;;;;;;;;;;;;18.59;60.16;99731.56;5071289;28;881;-65
2021/07/10 04:12:04;;;;;;;;;;;;;;;18.91;59.49;99728.28;5071237;28;979;-66
2021/07/10 04:14:31;;;;;;;;;;;;;;;19.35;57.92;99728.09;5066335;28;1382;-66
2021/07/10 04:16:57;;;;;;;;;;;;;;;19.77;57.59;99727.50;5051146;28;803;-67
2021/07/10 04:19:24;;;;;;;;;;;;;;;19.94;57.37;99735.59;5050929;28;830;-66
2021/07/10 04:21:51;;;;;;;;;;;;;;;19.84;57.88;99728.44;5051418;28;1914;-66
2021/07/10 04:24:17;;;;;;;;;;;;;;;19.70;58.81;99724.25;5051358;28;988;-66
2021/07/10 04:26:44;;;;;;;;;;;;;;;19.79;58.88;99719.41;5053197;28;1408;-66
2021/07/10 04:29:10;;;;;;;;;;;;;;;20.02;58.29;99724.84;5054359;28;814;-66
2021/07/10 04:31:37;;;;;;;;;;;;;;;20.39;58.10;99731.16;5054342;28;862;-66
2021/07/10 04:34:04;;;;;;;;;;;;;;;20.76;57.46;99728.22;5054315;28;881;-66
2021/07/10 04:36:31;;;;;;;;;;;;;;;21.17;56.92;99725.84;5054258;28;822;-66
2021/07/10 04:38:58;;;;;;;;;;;;;;;21.87;56.18;99719.91;5054196;28;803;-66
2021/07/10 04:41:25;;;;;;;;;;;;;;;22.92;51.97;99712.94;5054167;28;1007;-67
2021/07/10 04:43:51;;;;;;;;;;;;;;;23.57;47.62;99726.13;5054026;28;1947;-65
2021/07/10 04:46:18;;;;;;;;;;;;;;;23.57;46.46;99728.94;5054130;28;806;-66
2021/07/10 04:48:43;;;;;;;;;;;;;;;23.31;46.01;99724.00;5053924;28;972;-66
2021/07/10 04:51:10;;;;;;;;;;;;;;;22.98;46.58;99718.66;5053941;28;839;-66
2021/07/10 04:53:37;;;;;;;;;;;;;;;22.66;47.20;99726.13;5053908;28;822;-63
2021/07/10 04:56:04;;;;;;;;;;;;;;;22.45;47.88;99731.69;5054106;28;834;-65
2021/07/10 04:58:31;;;;;;;;;;;;;;;22.34;47.64;99723.81;5053883;28;819;-64
2021/07/10 05:00:57;;;;;;;;;;;;;;;22.34;47.72;99731.47;5053791;28;838;-65
2021/07/10 05:03:24;;;;;;;;;;;;;;;22.29;47.43;99729.34;5053680;28;1913;-64
2021/07/10 05:05:51;;;;;;;;;;;;;;;22.39;48.01;99728.78;5069068;28;1187;-64
2021/07/10 05:13:27;;;;;;;;;;;;;;;23.11;47.51;99721.97;5738018;22;1791;-67
2021/07/10 05:15:53;;;;;;;;;;;;;;;23.41;45.69;99728.25;5094628;28;873;-64
2021/07/10 05:18:20;;;;;;;;;;;;;;;24.03;45.91;99733.84;5092847;28;1447;-65
2021/07/10 05:20:48;;;;;;;;;;;;;;;24.75;42.95;99723.69;5093964;28;817;-63
2021/07/10 05:23:15;;;;;;;;;;;;;;;25.10;42.08;99726.25;5093586;28;1909;-63
2021/07/10 05:25:42;;;;;;;;;;;;;;;25.43;40.10;99722.06;5094329;28;841;-64
2021/07/10 05:28:09;;;;;;;;;;;;;;;25.77;41.09;99717.28;5093616;28;829;-63
2021/07/10 05:30:35;;;;;;;;;;;;;;;26.01;40.45;99728.19;5093892;28;833;-65
2021/07/10 05:33:02;;;;;;;;;;;;;;;26.33;39.59;99724.38;5075285;28;1351;-63
2021/07/10 05:35:30;;;;;;;;;;;;;;;26.43;40.04;99725.66;5093148;28;801;-64
2021/07/10 05:37:56;;;;;;;;;;;;;;;26.85;39.46;99735.22;5093623;28;809;-65
2021/07/10 05:40:25;;;;;;;;;;;;;;;27.05;39.00;99734.88;5093323;28;830;-62
2021/07/10 05:42:53;;;;;;;;;;;;;;;27.07;38.37;99737.97;5093317;28;1914;-63
2021/07/10 05:45:20;;;;;;;;;;;;;;;27.39;38.36;99739.72;5093388;28;1035;-63
2021/07/10 05:47:47;;;;;;;;;;;;;;;27.82;37.81;99740.03;5093376;28;814;-64
2021/07/10 05:50:14;;;;;;;;;;;;;;;27.95;36.06;99758.59;5093165;28;895;-62
2021/07/10 05:52:41;;;;;;;;;;;;;;;27.89;36.46;99750.91;5093244;28;865;-62
2021/07/10 05:55:08;;;;;;;;;;;;;;;28.11;36.50;99754.91;5093232;28;814;-62
2021/07/10 05:57:35;;;;;;;;;;;;;;;28.35;35.67;99757.06;5093373;28;852;-63
2021/07/10 06:00:00;;;;;;;;;;;;;;;28.57;35.83;99756.16;5093136;28;834;-63
2021/07/10 06:02:27;;;;;;;;;;;;;;;28.69;34.10;99763.25;5093343;28;1893;-62
2021/07/10 06:04:54;;;;;;;;;;;;;;;28.78;35.24;99753.63;5093197;28;838;-64
2021/07/10 06:07:20;;;;;;;;;;;;;;;28.89;35.33;99764.91;5093108;28;981;-63
2021/07/10 06:09:46;;;;;;;;;;;;;;;29.03;34.85;99756.50;5093019;28;885;-62
2021/07/10 06:12:13;;;;;;;;;;;;;;;29.20;35.11;99759.19;5092555;28;984;-63
2021/07/10 06:14:40;;;;;;;;;;;;;;;29.38;34.63;99769.06;5092435;28;1366;-62
2021/07/10 06:17:06;;;;;;;;;;;;;;;29.40;34.06;99763.63;5092735;28;825;-63
2021/07/10 06:19:33;;;;;;;;;;;;;;;29.58;34.05;99768.59;5092657;28;798;-62
2021/07/10 06:22:00;;;;;;;;;;;;;;;30.01;33.49;99764.19;5092473;28;1914;-62
2021/07/10 06:24:27;;;;;;;;;;;;;;;29.98;32.40;99774.56;5092741;28;809;-63
2021/07/10 06:26:53;;;;;;;;;;;;;;;29.80;32.33;99769.63;5092460;28;825;-62
2021/07/10 06:29:20;;;;;;;;;;;;;;;29.68;32.20;99778.31;5092337;28;794;-62
2021/07/10 06:31:46;;;;;;;;;;;;;;;29.73;32.84;99767.41;5074194;28;1311;-63
2021/07/10 06:34:12;;;;;;;;;;;;;;;30.01;33.18;99779.19;5092444;28;806;-62
2021/07/10 06:36:40;;;;;;;;;;;;;;;30.17;32.99;99768.88;5092318;28;906;-62
2021/07/10 06:39:06;;;;;;;;;;;;;;;30.38;32.72;99765.47;5092243;28;857;-62
2021/07/10 06:41:33;;;;;;;;;;;;;;;30.32;31.52;99757.78;5092143;28;833;-61
2021/07/10 06:44:00;;;;;;;;;;;;;;;30.11;32.96;99759.63;5092077;28;1952;-62
2021/07/10 06:46:27;;;;;;;;;;;;;;;30.10;33.22;99760.94;5091968;28;814;-62
2021/07/10 06:48:53;;;;;;;;;;;;;;;30.18;34.17;99755.38;5091866;28;803;-63
2021/07/10 06:51:20;;;;;;;;;;;;;;;30.51;33.27;99762.66;5092086;28;869;-61
2021/07/10 06:53:47;;;;;;;;;;;;;;;30.44;32.58;99758.34;5092033;28;880;-62
2021/07/10 06:56:13;;;;;;;;;;;;;;;30.43;32.47;99753.97;5091840;28;860;-62
2021/07/10 06:58:40;;;;;;;;;;;;;;;30.45;31.99;99759.91;5092169;28;829;-61
2021/07/10 07:01:07;;;;;;;;;;;;;;;30.46;31.65;99755.72;5092174;28;936;-62
2021/07/10 07:03:32;;;;;;;;;;;;;;;30.48;32.41;99752.34;5091814;28;1951;-62
2021/07/10 07:05:59;;;;;;;;;;;;;;;30.46;33.39;99750.03;5091809;28;928;-62
2021/07/10 07:08:26;;;;;;;;;;;;;;;30.91;32.38;99752.13;5091825;28;857;-63
2021/07/10 07:10:53;;;;;;;;;;;;;;;31.27;32.30;99746.03;5091679;28;858;-62
2021/07/10 07:13:19;;;;;;;;;;;;;;;31.54;32.18;99741.09;5091686;28;1169;-62
2021/07/10 07:15:46;;;;;;;;;;;;;;;31.23;30.85;99736.25;5091725;28;832;-61
2021/07/10 07:18:15;;;;;;;;;;;;;;;31.20;31.17;99740.22;5091699;28;876;-62
2021/07/10 07:20:42;;;;;;;;;;;;;;;31.01;28.64;99752.50;5091546;28;873;-62
2021/07/10 07:23:09;;;;;;;;;;;;;;;30.70;30.02;99754.03;5091739;28;1969;-62
2021/07/10 07:25:36;;;;;;;;;;;;;;;30.84;32.27;99760.56;5091631;28;891;-63
2021/07/10 07:28:04;;;;;;;;;;;;;;;31.18;31.40;99766.44;5091617;28;798;-63
2021/07/10 07:30:30;;;;;;;;;;;;;;;31.47;29.58;99769.53;5091895;28;790;-61
2021/07/10 07:32:57;;;;;;;;;;;;;;;31.19;30.38;99765.13;5091478;28;809;-63
2021/07/10 07:35:23;;;;;;;;;;;;;;;31.02;31.09;99765.44;5091575;28;813;-61
2021/07/10 07:37:50;;;;;;;;;;;;;;;30.92;31.71;99767.97;5091420;28;842;-63
2021/07/10 07:40:17;;;;;;;;;;;;;;;31.27;31.84;99768.84;5091359;28;969;-61
2021/07/10 07:42:44;;;;;;;;;;;;;;;31.54;30.59;99766.03;5091375;28;1889;-64
2021/07/10 07:45:12;;;;;;;;;;;;;;;31.77;30.60;99763.44;5091453;28;869;-63
2021/07/10 07:47:39;;;;;;;;;;;;;;;31.97;30.98;99764.84;5091346;28;861;-63
2021/07/10 07:50:07;;;;;;;;;;;;;;;32.04;29.97;99767.03;5091439;28;794;-63
2021/07/10 07:52:34;;;;;;;;;;;;;;;32.15;30.66;99757.44;5091633;28;889;-64
2021/07/10 07:55:01;;;;;;;;;;;;;;;32.00;30.01;99763.75;5091328;28;799;-63
2021/07/10 07:57:28;;;;;;;;;;;;;;;31.87;31.24;99761.69;5091404;28;904;-63
2021/07/10 07:59:54;;;;;;;;;;;;;;;32.42;31.29;99760.22;5094553;28;1005;-64
2021/07/10 08:02:23;;;;;;;;;;;;;;;32.41;30.06;99762.31;5095224;28;1941;-63
2021/07/10 08:04:52;;;;;;;;;;;;;;;32.17;30.34;99760.50;5095125;28;872;-64
2021/07/10 08:07:19;;;;;;;;;;;;;;;31.99;30.10;99764.34;5095064;28;846;-64
2021/07/10 08:09:46;;;;;;;;;;;;;;;32.28;31.16;99768.81;5094985;28;861;-64
2021/07/10 08:12:12;;;;;;;;;;;;;;;32.87;29.65;99773.41;5094979;28;910;-65
2021/07/10 08:14:39;;;;;;;;;;;;;;;33.07;30.08;99781.22;5094739;28;1389;-62
2021/07/10 08:17:06;;;;;;;;;;;;;;;33.52;29.47;99764.88;5094901;28;827;-64
2021/07/10 08:19:33;;;;;;;;;;;;;;;34.15;27.95;99773.97;5094868;28;817;-64
2021/07/10 08:21:59;;;;;;;;;;;;;;;34.67;27.54;99773.13;5095102;28;1981;-65
2021/07/10 08:24:26;;;;;;;;;;;;;;;34.91;27.05;99763.16;5094765;28;794;-65
2021/07/10 08:26:52;;;;;;;;;;;;;;;34.84;26.32;99769.69;5093388;28;1343;-63
2021/07/10 08:29:18;;;;;;;;;;;;;;;33.99;28.04;99769.50;5094865;28;806;-65
2021/07/10 08:31:45;;;;;;;;;;;;;;;33.62;28.62;99768.03;5094562;28;859;-64
2021/07/10 08:34:12;;;;;;;;;;;;;;;33.95;28.96;99767.00;5094614;28;825;-64
2021/07/10 08:36:39;;;;;;;;;;;;;;;34.55;29.11;99764.88;5094536;28;984;-64
2021/07/10 08:39:07;;;;;;;;;;;;;;;35.01;28.55;99766.22;5094529;28;827;-65
2021/07/10 08:41:34;;;;;;;;;;;;;;;34.63;27.47;99766.97;5094324;28;893;-64
2021/07/10 08:44:00;;;;;;;;;;;;;;;34.34;28.16;99758.53;5094521;28;1890;-62
2021/07/10 08:46:27;;;;;;;;;;;;;;;33.62;28.91;99760.19;5094393;28;798;-64
2021/07/10 08:48:53;;;;;;;;;;;;;;;33.44;30.78;99758.34;5094301;28;794;-64
2021/07/10 08:51:20;;;;;;;;;;;;;;;33.61;29.62;99761.53;5094316;28;822;-64
2021/07/10 08:53:47;;;;;;;;;;;;;;;33.81;30.28;99751.28;5094268;28;896;-64
2021/07/10 08:56:14;;;;;;;;;;;;;;;34.06;30.31;99754.44;5094435;28;801;-64
2021/07/10 08:58:40;;;;;;;;;;;;;;;34.54;30.28;99765.44;5094105;28;813;-64
2021/07/10 09:01:08;;;;;;;;;;;;;;;34.63;28.81;99762.03;5094231;28;809;-65
2021/07/10 09:03:35;;;;;;;;;;;;;;;34.39;29.29;99762.56;5093960;28;1889;-65
2021/07/10 09:06:02;;;;;;;;;;;;;;;33.96;28.55;99762.03;5094011;28;853;-65
2021/07/10 09:08:31;;;;;;;;;;;;;;;33.70;29.58;99754.50;5094096;28;865;-64
2021/07/10 09:11:02;;;;;;;;;;;;;;;33.66;30.31;99751.22;5093314;28;852;-63
2021/07/10 09:13:40;;;;;;;;;;;;;;;33.90;29.72;99749.97;5093825;28;1446;-64
2021/07/10 09:16:06;;;;;;;;;;;;;;;34.01;29.98;99754.59;5093866;28;848;-65
2021/07/10 09:18:41;;;;;;;;;;;;;;;33.90;31.39;99747.88;5092441;28;2380;-64
2021/07/10 09:21:07;;;;;;;;;;;;;;;34.00;30.96;99750.97;5093719;28;872;-64
2021/07/10 09:23:40;;;;;;;;;;;;;;;34.30;31.40;99746.66;5093656;28;1968;-65
2021/07/10 09:26:14;;;;;;;;;;;;;;;34.20;30.52;99745.69;5093813;28;809;-65
2021/07/10 09:28:41;;;;;;;;;;;;;;;33.96;30.41;99737.00;5093551;28;853;-65
2021/07/10 09:31:26;;;;;;;;;;;;;;;34.12;29.08;99746.44;5093553;28;801;-63
2021/07/10 09:34:00;;;;;;;;;;;;;;;33.41;29.44;99745.91;5093542;28;825;-65
2021/07/10 09:36:28;;;;;;;;;;;;;;;32.83;29.12;99741.50;5093494;28;848;-64
2021/07/10 09:38:54;;;;;;;;;;;;;;;32.87;30.35;99750.50;5093335;28;836;-64
2021/07/10 09:41:30;;;;;;;;;;;;;;;33.24;29.97;99748.50;5093359;28;818;-63
2021/07/10 09:44:08;;;;;;;;;;;;;;;32.60;30.11;99742.09;5091838;28;1886;-64
2021/07/10 09:46:34;;;;;;;;;;;;;;;32.26;32.42;99748.63;5093299;28;865;-63
2021/07/10 09:49:21;;;;;;;;;;;;;;;32.39;33.84;99739.22;5093165;28;837;-65
2021/07/10 09:52:07;;;;;;;;;;;;;;;32.12;31.97;99742.19;5093036;28;1200;-63
2021/07/10 09:54:42;;;;;;;;;;;;;;;31.83;33.52;99729.06;5093126;28;802;-65
2021/07/10 09:57:10;;;;;;;;;;;;;;;31.76;35.57;99739.06;5093008;28;836;-64
2021/07/10 09:59:38;;;;;;;;;;;;;;;31.58;32.74;99734.25;5093046;28;853;-64
2021/07/10 10:02:13;;;;;;;;;;;;;;;31.06;34.81;99731.63;5092839;28;1906;-63
2021/07/10 10:04:40;;;;;;;;;;;;;;;30.94;34.81;99736.03;5093422;28;806;-64
2021/07/10 10:07:11;;;;;;;;;;;;;;;30.60;35.15;99718.69;5093473;28;830;-65
2021/07/10 10:09:38;;;;;;;;;;;;;;;30.55;35.46;99736.69;5092585;28;865;-64
2021/07/10 10:12:11;;;;;;;;;;;;;;;30.29;34.22;99730.34;5092768;28;1036;-64
2021/07/10 10:14:41;;;;;;;;;;;;;;;29.97;34.06;99738.84;5092469;28;1434;-64
2021/07/10 10:17:08;;;;;;;;;;;;;;;29.77;34.35;99731.63;5092659;28;825;-64
2021/07/10 10:19:36;;;;;;;;;;;;;;;30.00;34.86;99728.44;5092625;28;786;-63
2021/07/10 10:22:04;;;;;;;;;;;;;;;30.29;34.48;99724.66;5091566;28;1910;-64
2021/07/10 10:24:30;;;;;;;;;;;;;;;30.36;35.77;99725.31;5092490;28;996;-63
2021/07/10 10:26:58;;;;;;;;;;;;;;;30.29;35.03;99721.78;5092471;28;845;-64
2021/07/10 10:29:25;;;;;;;;;;;;;;;30.07;34.86;99717.19;5092463;28;900;-64
2021/07/10 10:31:52;;;;;;;;;;;;;;;30.09;36.39;99716.66;5092427;28;810;-65
2021/07/10 10:34:19;;;;;;;;;;;;;;;30.45;36.97;99717.16;5092314;28;814;-63
2021/07/10 10:36:47;;;;;;;;;;;;;;;30.54;36.47;99715.97;5092229;28;830;-65
2021/07/10 10:39:15;;;;;;;;;;;;;;;30.60;37.13;99716.63;5092079;28;829;-65
2021/07/10 10:41:46;;;;;;;;;;;;;;;30.86;38.63;99712.28;5092264;28;861;-64
2021/07/10 10:44:14;;;;;;;;;;;;;;;30.99;35.26;99694.44;5092553;28;1889;-64
2021/07/10 10:46:58;;;;;;;;;;;;;;;30.82;37.16;99706.91;5092633;28;865;-65
2021/07/10 10:49:39;;;;;;;;;;;;;;;30.73;36.20;99702.38;5092349;28;901;-65
2021/07/10 10:52:23;;;;;;;;;;;;;;;30.47;35.21;99705.16;5092146;28;821;-64
2021/07/10 10:54:51;;;;;;;;;;;;;;;30.37;36.75;99696.28;5092025;28;876;-64
2021/07/10 10:57:28;;;;;;;;;;;;;;;30.50;38.00;99695.53;5092025;28;809;-64
2021/07/10 10:59:56;;;;;;;;;;;;;;;30.67;35.39;99698.09;5091981;28;888;-64
2021/07/10 11:02:25;;;;;;;;;;;;;;;30.69;36.34;99701.19;5091971;28;1952;-65
2021/07/10 11:04:58;;;;;;;;;;;;;;;30.66;36.66;99694.50;5092425;28;834;-65
2021/07/10 11:07:25;;;;;;;;;;;;;;;30.69;36.08;99690.53;5091838;28;805;-63
2021/07/10 11:10:04;;;;;;;;;;;;;;;30.73;37.85;99690.97;5091799;28;865;-64
2021/07/10 11:12:53;;;;;;;;;;;;;;;30.86;37.97;99686.59;5090495;28;1294;-63
2021/07/10 11:15:25;;;;;;;;;;;;;;;30.82;36.18;99684.06;5091537;28;1234;-65
2021/07/10 11:17:52;;;;;;;;;;;;;;;30.91;35.53;99683.66;5091780;28;865;-63
2021/07/10 11:20:37;;;;;;;;;;;;;;;31.21;36.32;99684.66;5091901;28;841;-65
2021/07/10 11:23:04;;;;;;;;;;;;;;;31.42;33.43;99688.34;5092054;28;1987;-64
2021/07/10 11:25:55;;;;;;;;;;;;;;;31.46;36.25;99685.97;5092217;28;900;-64
2021/07/10 11:28:24;;;;;;;;;;;;;;;31.59;32.79;99687.25;5082369;28;1099;-64
2021/07/10 11:30:53;;;;;;;;;;;;;;;31.70;32.74;99687.00;5091627;28;864;-63
2021/07/10 11:33:38;;;;;;;;;;;;;;;31.99;33.96;99678.59;5092278;28;810;-64
2021/07/10 11:36:24;;;;;;;;;;;;;;;32.05;33.33;99677.13;5095807;28;864;-64
2021/07/10 11:38:51;;;;;;;;;;;;;;;31.86;31.53;99680.16;5095684;28;1281;-64
2021/07/10 11:41:27;;;;;;;;;;;;;;;31.90;33.04;99674.84;5095722;28;864;-65
2021/07/10 11:44:10;;;;;;;;;;;;;;;32.08;31.98;99673.16;5095540;28;1889;-65
2021/07/10 11:46:56;;;;;;;;;;;;;;;32.19;31.28;99665.63;5095583;28;821;-67
2021/07/10 11:49:39;;;;;;;;;;;;;;;32.02;30.73;99669.66;5077338;28;1271;-64
2021/07/10 11:52:14;;;;;;;;;;;;;;;31.99;30.56;99655.72;5095386;28;868;-66
2021/07/10 11:54:45;;;;;;;;;;;;;;;31.94;30.91;99665.91;5095382;28;864;-64
2021/07/10 11:57:13;;;;;;;;;;;;;;;31.81;31.08;99669.59;5095320;28;830;-64
2021/07/10 11:59:42;;;;;;;;;;;;;;;32.05;31.58;99662.06;5095251;28;842;-66
2021/07/10 12:02:27;;;;;;;;;;;;;;;32.31;31.72;99650.50;5095482;28;1948;-64
2021/07/10 12:05:01;;;;;;;;;;;;;;;32.29;29.99;99664.56;5095110;28;786;-65
2021/07/10 12:07:29;;;;;;;;;;;;;;;32.14;30.26;99655.88;5095035;28;798;-66
2021/07/10 12:09:55;;;;;;;;;;;;;;;32.28;30.81;99663.03;5095128;28;814;-66
2021/07/10 12:12:22;;;;;;;;;;;;;;;32.45;28.99;99658.97;5095093;28;940;-64
2021/07/10 12:14:57;;;;;;;;;;;;;;;32.80;29.14;99648.97;5094718;28;1441;-65
2021/07/10 12:17:24;;;;;;;;;;;;;;;33.02;30.29;99653.28;5094965;28;849;-64
2021/07/10 12:19:51;;;;;;;;;;;;;;;33.12;29.60;99660.06;5094916;28;917;-64
2021/07/10 12:22:18;;;;;;;;;;;;;;;33.17;29.14;99654.75;5095046;28;1910;-66
2021/07/10 12:24:45;;;;;;;;;;;;;;;33.26;29.17;99654.97;5094840;28;802;-66
2021/07/10 12:27:14;;;;;;;;;;;;;;;33.31;28.43;99651.19;5094881;28;912;-64
2021/07/10 12:29:54;;;;;;;;;;;;;;;33.13;28.03;99641.53;5094702;28;826;-66
2021/07/10 12:32:21;;;;;;;;;;;;;;;33.24;29.11;99639.69;5095589;28;845;-66
2021/07/10 12:34:49;;;;;;;;;;;;;;;33.92;29.80;99638.38;5094976;28;841;-64
2021/07/10 12:37:23;;;;;;;;;;;;;;;34.50;29.09;99638.81;5095255;28;779;-67
2021/07/10 12:39:50;;;;;;;;;;;;;;;34.54;28.66;99651.41;5094423;28;790;-65
2021/07/10 12:42:18;;;;;;;;;;;;;;;33.99;27.80;99642.59;5094663;28;1947;-65
2021/07/10 12:44:46;;;;;;;;;;;;;;;33.92;28.16;99635.50;5093691;28;892;-65
2021/07/10 12:47:16;;;;;;;;;;;;;;;33.97;28.59;99641.06;5094266;28;798;-66
2021/07/10 12:49:47;;;;;;;;;;;;;;;33.99;28.44;99629.00;5094381;28;849;-66
2021/07/10 12:52:20;;;;;;;;;;;;;;;33.68;27.58;99639.69;5076176;28;1159;-65
2021/07/10 12:54:52;;;;;;;;;;;;;;;33.43;28.98;99633.66;5094452;28;864;-64
2021/07/10 12:57:27;;;;;;;;;;;;;;;33.32;28.81;99632.66;5094169;28;935;-66
2021/07/10 12:59:54;;;;;;;;;;;;;;;33.43;29.91;99637.28;5094189;28;814;-66
2021/07/10 13:02:22;;;;;;;;;;;;;;;33.70;29.34;99634.16;5093949;28;1885;-64
2021/07/10 13:04:49;;;;;;;;;;;;;;;34.25;29.10;99630.81;5093955;28;889;-64
2021/07/10 13:07:26;;;;;;;;;;;;;;;34.72;29.33;99620.06;5093947;28;806;-64
2021/07/10 13:09:53;;;;;;;;;;;;;;;35.08;28.79;99621.84;5093901;28;881;-64
2021/07/10 13:12:37;;;;;;;;;;;;;;;34.99;28.70;99626.09;5093947;28;1022;-67
2021/07/10 13:15:04;;;;;;;;;;;;;;;34.61;28.14;99614.69;5093852;28;1289;-65
2021/07/10 13:17:31;;;;;;;;;;;;;;;34.59;27.58;99615.28;5094371;28;853;-65